createdAt,value
2018-06-29T00:00:24.231Z,3.33
2018-06-29T00:02:58.583Z,3.00
2018-06-29T00:05:32.802Z,3.30
2018-06-29T00:08:07.106Z,2.80
2018-06-29T00:10:41.416Z,3.30
2018-06-29T00:13:15.798Z,3.30
2018-06-29T00:15:49.990Z,2.73
2018-06-29T00:18:24.426Z,2.80
2018-06-29T00:20:58.838Z,2.63
2018-06-29T00:23:33.164Z,2.50
2018-06-29T00:26:07.516Z,2.73
2018-06-29T00:28:41.927Z,2.43
2018-06-29T00:31:16.127Z,3.10
2018-06-29T00:33:50.457Z,3.30
2018-06-29T00:36:24.802Z,3.03
2018-06-29T00:38:58.942Z,2.93
2018-06-29T00:41:33.302Z,2.90
2018-06-29T00:44:07.746Z,3.00
2018-06-29T00:46:42.057Z,2.70
2018-06-29T00:49:16.206Z,3.20
2018-06-29T00:51:50.626Z,3.07
2018-06-29T00:54:24.938Z,3.10
2018-06-29T00:56:59.113Z,2.87
2018-06-29T00:59:33.386Z,3.30
2018-06-29T01:02:07.686Z,2.83
2018-06-29T01:04:42.025Z,3.23
2018-06-29T01:07:16.427Z,3.77
2018-06-29T01:09:50.755Z,3.00
2018-06-29T01:12:25.087Z,3.30
2018-06-29T01:14:59.411Z,3.10
2018-06-29T01:17:33.690Z,3.03
2018-06-29T01:20:08.003Z,3.37
2018-06-29T01:22:42.266Z,3.80
2018-06-29T01:25:16.570Z,3.43
2018-06-29T01:27:50.766Z,3.50
2018-06-29T01:30:25.087Z,3.43
2018-06-29T01:32:59.391Z,3.83
2018-06-29T01:35:33.623Z,3.70
2018-06-29T01:38:07.959Z,3.63
2018-06-29T01:40:42.182Z,3.73
2018-06-29T01:43:16.598Z,3.53
2018-06-29T01:45:50.810Z,3.57
2018-06-29T01:48:25.179Z,3.70
2018-06-29T01:50:59.631Z,4.03
2018-06-29T01:53:33.854Z,4.43
2018-06-29T01:56:08.146Z,4.37
2018-06-29T01:58:42.389Z,3.97
2018-06-29T02:01:16.649Z,3.97
2018-06-29T02:03:50.918Z,3.77
2018-06-29T02:06:25.434Z,4.37
2018-06-29T02:08:59.755Z,4.00
2018-06-29T02:11:34.154Z,4.23
2018-06-29T02:14:08.449Z,3.90
2018-06-29T02:16:42.690Z,4.20
2018-06-29T02:19:17.014Z,4.03
2018-06-29T02:21:51.237Z,4.40
2018-06-29T02:24:25.479Z,4.13
2018-06-29T02:26:59.626Z,4.23
2018-06-29T02:29:33.933Z,4.37
2018-06-29T02:32:08.125Z,4.70
2018-06-29T02:34:42.399Z,4.20
2018-06-29T02:37:16.643Z,4.27
2018-06-29T02:39:50.993Z,4.30
2018-06-29T02:42:25.127Z,4.03
2018-06-29T02:44:59.482Z,4.23
2018-06-29T02:47:33.778Z,4.20
2018-06-29T02:50:08.078Z,5.00
2018-06-29T02:52:42.221Z,4.23
2018-06-29T02:55:16.558Z,5.10
2018-06-29T02:57:50.698Z,5.00
2018-06-29T03:00:25.006Z,4.10
2018-06-29T03:02:59.307Z,4.50
2018-06-29T03:05:33.598Z,4.90
2018-06-29T03:08:07.890Z,4.77
2018-06-29T03:10:42.250Z,5.00
2018-06-29T03:13:16.698Z,4.97
2018-06-29T03:15:51.027Z,5.23
2018-06-29T03:18:25.157Z,4.77
2018-06-29T03:20:59.463Z,4.93
2018-06-29T03:23:33.742Z,4.47
2018-06-29T03:26:07.978Z,4.90
2018-06-29T03:28:42.158Z,4.90
2018-06-29T03:31:16.435Z,5.47
2018-06-29T03:33:50.722Z,5.27
2018-06-29T03:36:25.118Z,4.80
2018-06-29T03:38:59.406Z,5.37
2018-06-29T03:41:33.566Z,4.70
2018-06-29T03:44:07.894Z,5.90
2018-06-29T03:46:42.094Z,4.83
2018-06-29T03:49:16.351Z,5.70
2018-06-29T03:51:50.634Z,5.93
2018-06-29T03:54:24.946Z,5.90
2018-06-29T03:56:59.315Z,5.77
2018-06-29T03:59:33.493Z,5.70
2018-06-29T04:02:07.898Z,5.63
2018-06-29T04:04:42.265Z,5.23
2018-06-29T04:07:16.429Z,6.20
2018-06-29T04:09:50.650Z,6.47
2018-06-29T04:12:25.051Z,5.70
2018-06-29T04:14:59.371Z,5.40
2018-06-29T04:17:33.533Z,6.07
2018-06-29T04:20:07.770Z,5.50
2018-06-29T04:22:42.039Z,5.43
2018-06-29T04:25:16.375Z,6.13
2018-06-29T04:27:50.700Z,5.93
2018-06-29T04:30:24.946Z,5.70
2018-06-29T04:32:59.183Z,5.77
2018-06-29T04:35:33.546Z,5.20
2018-06-29T04:38:07.761Z,5.80
2018-06-29T04:40:41.941Z,5.73
2018-06-29T04:43:16.214Z,5.50
2018-06-29T04:45:50.574Z,6.07
2018-06-29T04:48:24.946Z,5.47
2018-06-29T04:50:59.431Z,6.23
2018-06-29T04:53:33.690Z,5.67
2018-06-29T04:56:07.961Z,6.00
2018-06-29T04:58:42.268Z,5.47
2018-06-29T05:01:16.559Z,6.03
2018-06-29T05:03:50.783Z,6.23
2018-06-29T05:06:25.074Z,5.77
2018-06-29T05:08:59.287Z,6.43
2018-06-29T05:11:33.677Z,6.30
2018-06-29T05:14:07.932Z,6.50
2018-06-29T05:16:42.153Z,6.40
2018-06-29T05:19:16.536Z,6.70
2018-06-29T05:21:50.846Z,7.10
2018-06-29T05:24:25.461Z,6.40
2018-06-29T05:26:59.763Z,6.47
2018-06-29T05:29:35.137Z,6.90
2018-06-29T05:32:09.777Z,6.13
2018-06-29T05:34:44.161Z,6.70
2018-06-29T05:37:18.434Z,6.37
2018-06-29T05:39:52.689Z,6.60
2018-06-29T05:42:26.818Z,7.50
2018-06-29T05:45:01.096Z,6.33
2018-06-29T05:47:35.400Z,6.40
2018-06-29T05:50:09.646Z,6.47
2018-06-29T05:52:44.034Z,6.97
2018-06-29T05:55:17.995Z,6.93
2018-06-29T05:57:52.287Z,6.80
2018-06-29T06:00:26.585Z,6.53
2018-06-29T06:03:00.828Z,6.67
2018-06-29T06:05:35.079Z,6.90
2018-06-29T06:08:09.290Z,6.77
2018-06-29T06:10:43.422Z,7.10
2018-06-29T06:13:17.874Z,7.07
2018-06-29T06:15:52.182Z,7.60
2018-06-29T06:18:26.430Z,6.70
2018-06-29T06:21:00.714Z,6.40
2018-06-29T06:23:34.873Z,7.00
2018-06-29T06:26:09.099Z,6.67
2018-06-29T06:28:43.303Z,7.40
2018-06-29T06:31:17.622Z,6.70
2018-06-29T06:33:51.779Z,7.00
2018-06-29T06:36:26.010Z,7.40
2018-06-29T06:39:00.314Z,7.20
2018-06-29T06:41:34.502Z,6.40
2018-06-29T06:44:08.882Z,6.90
2018-06-29T06:46:43.186Z,7.13
2018-06-29T06:49:17.499Z,7.13
2018-06-29T06:51:51.830Z,6.50
2018-06-29T06:54:25.981Z,6.23
2018-06-29T06:57:00.330Z,6.17
2018-06-29T06:59:34.510Z,6.43
2018-06-29T07:02:08.789Z,6.47
2018-06-29T07:04:43.049Z,5.87
2018-06-29T07:07:17.330Z,6.20
2018-06-29T07:09:51.804Z,6.10
2018-06-29T07:12:26.229Z,5.60
2018-06-29T07:15:00.503Z,5.83
2018-06-29T07:17:34.850Z,6.10
2018-06-29T07:20:09.507Z,6.27
2018-06-29T07:22:43.710Z,5.80
2018-06-29T07:25:18.038Z,5.63
2018-06-29T07:27:52.258Z,5.60
2018-06-29T07:30:26.456Z,4.80
2018-06-29T07:33:00.773Z,5.60
2018-06-29T07:35:35.100Z,4.57
2018-06-29T07:38:09.426Z,4.83
2018-06-29T07:40:43.694Z,4.33
2018-06-29T07:43:17.910Z,3.87
2018-06-29T07:45:52.186Z,4.10
2018-06-29T07:48:26.706Z,4.67
2018-06-29T07:51:00.942Z,4.13
2018-06-29T07:53:35.198Z,3.33
2018-06-29T07:56:09.636Z,4.90
2018-06-29T07:58:44.015Z,4.50
2018-06-29T08:01:18.259Z,4.63
2018-06-29T08:03:52.598Z,4.47
2018-06-29T08:06:26.862Z,5.13
2018-06-29T08:09:01.142Z,4.47
2018-06-29T08:11:35.494Z,3.93
2018-06-29T08:14:09.746Z,4.30
2018-06-29T08:16:44.243Z,4.27
2018-06-29T08:19:18.447Z,4.80
2018-06-29T08:21:52.846Z,4.87
2018-06-29T08:24:29.451Z,4.30
2018-06-29T08:27:03.646Z,4.07
2018-06-29T08:29:37.846Z,3.67
2018-06-29T08:32:12.134Z,3.87
2018-06-29T08:34:46.567Z,4.03
2018-06-29T08:37:20.858Z,3.90
2018-06-29T08:39:55.166Z,3.60
2018-06-29T08:42:29.526Z,3.50
2018-06-29T08:45:03.974Z,3.27
2018-06-29T08:47:38.180Z,3.60
2018-06-29T08:50:12.578Z,2.90
2018-06-29T08:52:46.734Z,3.40
2018-06-29T08:55:21.026Z,3.23
2018-06-29T08:57:55.289Z,3.13
2018-06-29T09:00:29.575Z,3.33
2018-06-29T09:03:04.037Z,3.43
2018-06-29T09:05:38.286Z,3.10
2018-06-29T09:08:12.522Z,3.07
2018-06-29T09:10:46.815Z,3.30
2018-06-29T09:13:21.184Z,2.80
2018-06-29T09:15:55.466Z,2.77
2018-06-29T09:18:29.845Z,2.77
2018-06-29T09:21:04.139Z,3.53
2018-06-29T09:23:38.341Z,3.23
2018-06-29T09:26:12.602Z,2.13
2018-06-29T09:28:46.785Z,3.20
2018-06-29T09:31:21.021Z,8.40
2018-06-29T09:33:55.372Z,3.07
2018-06-29T09:36:29.645Z,3.43
2018-06-29T09:39:05.937Z,2.53
2018-06-29T09:41:40.346Z,3.20
2018-06-29T09:44:14.526Z,3.00
2018-06-29T09:46:48.779Z,2.93
2018-06-29T09:49:23.087Z,2.80
2018-06-29T09:51:57.366Z,2.53
2018-06-29T09:54:31.546Z,2.27
2018-06-29T09:57:05.850Z,6.20
2018-06-29T09:59:40.083Z,3.83
2018-06-29T10:02:14.330Z,2.70
2018-06-29T10:04:48.687Z,2.93
2018-06-29T10:07:22.983Z,2.80
2018-06-29T10:09:57.273Z,2.10
2018-06-29T10:12:31.447Z,1.80
2018-06-29T10:15:05.886Z,2.03
2018-06-29T10:17:40.059Z,2.10
2018-06-29T10:20:14.412Z,2.10
2018-06-29T10:22:48.564Z,2.33
2018-06-29T10:25:22.810Z,2.07
2018-06-29T10:27:57.032Z,2.30
2018-06-29T10:30:31.183Z,2.03
2018-06-29T10:33:05.578Z,2.27
2018-06-29T10:35:39.857Z,2.10
2018-06-29T10:38:14.031Z,2.13
2018-06-29T10:40:48.370Z,1.83
2018-06-29T10:43:22.653Z,1.97
2018-06-29T10:45:57.073Z,1.87
2018-06-29T10:48:31.345Z,2.10
2018-06-29T10:51:05.663Z,1.90
2018-06-29T10:53:40.066Z,2.23
2018-06-29T10:56:14.318Z,2.10
2018-06-29T10:58:48.633Z,2.03
2018-06-29T11:01:22.921Z,2.10
2018-06-29T11:03:57.246Z,2.00
2018-06-29T11:06:31.459Z,2.20
2018-06-29T11:09:08.163Z,1.63
2018-06-29T11:11:42.510Z,1.77
2018-06-29T11:14:16.875Z,1.43
2018-06-29T11:16:51.337Z,1.50
2018-06-29T11:19:25.630Z,1.57
2018-06-29T11:21:59.826Z,1.90
2018-06-29T11:24:34.062Z,1.37
2018-06-29T11:27:08.239Z,2.50
2018-06-29T11:29:42.559Z,1.10
2018-06-29T11:32:16.798Z,1.53
2018-06-29T11:34:51.117Z,2.10
2018-06-29T11:37:25.636Z,1.57
2018-06-29T11:39:59.953Z,1.43
2018-06-29T11:42:34.280Z,1.43
2018-06-29T11:45:08.590Z,1.47
2018-06-29T11:47:42.865Z,1.67
2018-06-29T11:50:17.082Z,1.37
2018-06-29T11:52:51.482Z,1.60
2018-06-29T11:55:25.768Z,1.40
2018-06-29T11:58:00.083Z,1.20
2018-06-29T12:00:34.563Z,1.53
2018-06-29T12:03:08.650Z,1.50
2018-06-29T12:05:43.191Z,1.90
2018-06-29T12:08:17.514Z,1.40
2018-06-29T12:10:51.707Z,1.50
2018-06-29T12:13:26.035Z,1.50
2018-06-29T12:16:00.227Z,1.70
2018-06-29T12:18:34.598Z,1.57
2018-06-29T12:21:08.906Z,1.70
2018-06-29T12:23:43.213Z,1.50
2018-06-29T12:26:17.496Z,2.10
2018-06-29T12:28:51.819Z,1.90
2018-06-29T12:31:26.114Z,1.80
2018-06-29T12:34:00.374Z,1.87
2018-06-29T12:36:34.701Z,1.50
2018-06-29T12:39:09.178Z,1.90
2018-06-29T12:41:43.524Z,1.70
2018-06-29T12:44:17.800Z,1.47
2018-06-29T12:46:51.978Z,1.70
2018-06-29T12:49:26.162Z,1.80
2018-06-29T12:52:00.478Z,1.73
2018-06-29T12:54:34.858Z,2.20
2018-06-29T12:57:09.212Z,2.03
2018-06-29T12:59:43.429Z,2.10
2018-06-29T13:02:17.571Z,2.33
2018-06-29T13:04:51.984Z,2.33
2018-06-29T13:07:26.251Z,2.60
2018-06-29T13:10:00.686Z,2.90
2018-06-29T13:12:35.062Z,3.00
2018-06-29T13:15:09.278Z,2.90
2018-06-29T13:17:43.678Z,2.90
2018-06-29T13:20:17.921Z,2.77
2018-06-29T13:22:52.205Z,3.40
2018-06-29T13:25:26.481Z,2.80
2018-06-29T13:28:00.890Z,2.63
2018-06-29T13:30:35.066Z,2.90
2018-06-29T13:33:09.350Z,3.17
2018-06-29T13:35:43.629Z,2.57
2018-06-29T13:38:23.649Z,2.70
2018-06-29T13:40:57.935Z,2.90
2018-06-29T13:43:32.147Z,2.70
2018-06-29T13:46:06.303Z,3.10
2018-06-29T13:48:40.502Z,3.00
2018-06-29T13:51:14.746Z,3.30
2018-06-29T13:53:49.006Z,2.83
2018-06-29T13:56:23.279Z,3.47
2018-06-29T13:58:57.699Z,3.60
2018-06-29T14:01:31.888Z,3.47
2018-06-29T14:04:06.172Z,4.10
2018-06-29T14:06:40.523Z,5.03
2018-06-29T14:09:14.809Z,2.90
2018-06-29T14:11:49.098Z,2.70
2018-06-29T14:14:23.394Z,2.80
2018-06-29T14:16:57.783Z,2.33
2018-06-29T14:19:32.058Z,2.63
2018-06-29T14:22:06.455Z,2.90
2018-06-29T14:24:40.834Z,2.23
2018-06-29T14:27:15.169Z,2.37
2018-06-29T14:29:49.371Z,2.03
2018-06-29T14:32:23.653Z,2.10
2018-06-29T14:34:57.943Z,2.67
2018-06-29T14:37:32.356Z,2.60
2018-06-29T14:40:06.588Z,2.10
2018-06-29T14:42:40.794Z,2.30
2018-06-29T14:45:15.333Z,1.80
2018-06-29T14:47:49.433Z,2.37
2018-06-29T14:50:23.659Z,2.07
2018-06-29T14:52:57.954Z,2.23
2018-06-29T14:55:32.263Z,2.10
2018-06-29T14:58:06.638Z,2.20
2018-06-29T15:00:40.822Z,2.43
2018-06-29T15:03:15.127Z,2.03
2018-06-29T15:05:49.427Z,1.97
2018-06-29T15:08:23.738Z,2.07
2018-06-29T15:10:58.006Z,1.90
2018-06-29T15:13:32.297Z,2.10
2018-06-29T15:16:06.606Z,2.00
2018-06-29T15:18:41.370Z,1.93
2018-06-29T15:21:15.722Z,2.27
2018-06-29T15:23:49.963Z,2.53
2018-06-29T15:26:24.222Z,3.20
2018-06-29T15:28:58.542Z,2.10
2018-06-29T15:31:32.869Z,2.33
2018-06-29T15:34:07.106Z,2.53
2018-06-29T15:36:41.330Z,2.27
2018-06-29T15:39:15.543Z,2.40
2018-06-29T15:41:49.843Z,2.67
2018-06-29T15:44:24.142Z,2.90
2018-06-29T15:46:58.365Z,2.60
2018-06-29T15:49:33.028Z,2.50
2018-06-29T15:52:07.486Z,2.17
2018-06-29T15:54:41.674Z,2.60
2018-06-29T15:57:16.214Z,2.50
2018-06-29T15:59:50.365Z,2.50
2018-06-29T16:02:24.620Z,2.90
2018-06-29T16:04:58.954Z,2.83
2018-06-29T16:07:33.094Z,2.70
2018-06-29T16:10:07.406Z,2.70
2018-06-29T16:12:41.747Z,2.50
2018-06-29T16:15:16.074Z,2.63
2018-06-29T16:17:50.332Z,2.77
2018-06-29T16:20:24.626Z,2.90
2018-06-29T16:22:59.018Z,2.60
2018-06-29T16:25:33.238Z,2.57
2018-06-29T16:28:07.485Z,2.50
2018-06-29T16:30:41.742Z,2.80
2018-06-29T16:33:16.074Z,3.00
2018-06-29T16:35:50.352Z,3.33
2018-06-29T16:38:24.751Z,2.90
2018-06-29T16:40:58.959Z,2.73
2018-06-29T16:43:33.339Z,3.03
2018-06-29T16:46:07.667Z,2.50
2018-06-29T16:48:42.054Z,2.50
2018-06-29T16:51:16.346Z,2.70
2018-06-29T16:53:50.719Z,2.47
2018-06-29T16:56:24.914Z,3.07
2018-06-29T16:58:59.054Z,2.70
2018-06-29T17:01:33.206Z,2.80
2018-06-29T17:04:07.523Z,3.77
2018-06-29T17:06:41.857Z,2.80
2018-06-29T17:09:16.166Z,3.20
2018-06-29T17:11:50.309Z,3.30
2018-06-29T17:14:24.950Z,3.37
2018-06-29T17:16:59.121Z,4.27
2018-06-29T17:19:33.328Z,3.20
2018-06-29T17:22:07.634Z,2.90
2018-06-29T17:24:41.991Z,3.17
2018-06-29T17:27:16.527Z,3.30
2018-06-29T17:29:50.722Z,3.30
2018-06-29T17:32:24.972Z,3.00
2018-06-29T17:34:59.259Z,3.30
2018-06-29T17:37:33.614Z,3.23
2018-06-29T17:40:08.021Z,3.40
2018-06-29T17:42:42.166Z,3.53
2018-06-29T17:45:16.318Z,3.77
2018-06-29T17:47:50.347Z,3.50
2018-06-29T17:50:24.538Z,3.90
2018-06-29T17:52:58.935Z,3.57
2018-06-29T17:55:33.254Z,3.50
2018-06-29T17:58:07.538Z,4.03
2018-06-29T18:00:41.881Z,3.50
2018-06-29T18:03:16.179Z,4.50
2018-06-29T18:05:50.423Z,3.60
2018-06-29T18:08:24.802Z,4.23
2018-06-29T18:10:59.255Z,4.57
2018-06-29T18:13:33.571Z,4.70
2018-06-29T18:16:07.850Z,3.90
2018-06-29T18:18:42.141Z,4.37
2018-06-29T18:21:16.298Z,5.17
2018-06-29T18:23:50.429Z,4.70
2018-06-29T18:26:24.829Z,4.17
2018-06-29T18:28:59.136Z,4.87
2018-06-29T18:31:33.481Z,4.80
2018-06-29T18:34:07.771Z,4.70
2018-06-29T18:36:42.220Z,5.37
2018-06-29T18:39:16.398Z,4.40
2018-06-29T18:41:50.782Z,4.97
2018-06-29T18:44:24.911Z,4.77
2018-06-29T18:46:59.179Z,5.30
2018-06-29T18:49:33.468Z,4.80
2018-06-29T18:52:07.883Z,4.53
2018-06-29T18:54:42.126Z,5.17
2018-06-29T18:57:16.445Z,5.47
2018-06-29T18:59:50.735Z,5.33
2018-06-29T19:02:24.999Z,5.47
2018-06-29T19:04:59.275Z,5.87
2018-06-29T19:07:33.658Z,5.67
2018-06-29T19:10:07.979Z,5.23
2018-06-29T19:12:42.321Z,5.40
2018-06-29T19:15:16.518Z,6.13
2018-06-29T19:17:50.842Z,5.93
2018-06-29T19:20:24.972Z,6.63
2018-06-29T19:22:59.278Z,5.87
2018-06-29T19:25:33.613Z,5.50
2018-06-29T19:28:07.930Z,6.50
2018-06-29T19:30:42.502Z,7.23
2018-06-29T19:33:16.878Z,6.17
2018-06-29T19:35:51.161Z,6.47
2018-06-29T19:38:25.366Z,6.50
2018-06-29T19:40:59.648Z,6.83
2018-06-29T19:43:33.794Z,7.10
2018-06-29T19:46:08.102Z,6.87
2018-06-29T19:48:42.402Z,6.70
2018-06-29T19:51:16.706Z,7.43
2018-06-29T19:53:50.839Z,6.50
2018-06-29T19:56:25.071Z,7.00
2018-06-29T19:58:59.363Z,7.53
2018-06-29T20:01:33.577Z,7.80
2018-06-29T20:04:07.875Z,7.50
2018-06-29T20:06:42.797Z,7.53
2018-06-29T20:09:16.933Z,7.33
2018-06-29T20:11:51.285Z,7.00
2018-06-29T20:14:25.801Z,6.63
2018-06-29T20:17:00.012Z,7.73
2018-06-29T20:19:34.473Z,8.07
2018-06-29T20:22:09.057Z,8.20
2018-06-29T20:24:43.378Z,7.93
2018-06-29T20:27:17.624Z,7.70
2018-06-29T20:29:51.650Z,7.57
2018-06-29T20:32:25.942Z,8.10
2018-06-29T20:35:00.262Z,7.47
2018-06-29T20:37:34.566Z,8.37
2018-06-29T20:40:08.826Z,7.63
2018-06-29T20:42:43.198Z,7.87
2018-06-29T20:45:17.337Z,8.30
2018-06-29T20:47:51.758Z,8.03
2018-06-29T20:50:26.073Z,8.50
2018-06-29T20:53:00.370Z,8.73
2018-06-29T20:55:34.638Z,8.83
2018-06-29T20:58:09.024Z,8.73
2018-06-29T21:00:43.359Z,8.83
2018-06-29T21:03:17.711Z,8.73
2018-06-29T21:05:51.902Z,8.63
2018-06-29T21:08:26.353Z,8.70
2018-06-29T21:11:00.508Z,8.50
2018-06-29T21:13:34.834Z,8.93
2018-06-29T21:16:09.150Z,9.70
2018-06-29T21:18:43.515Z,9.43
2018-06-29T21:21:17.797Z,9.23
2018-06-29T21:23:52.154Z,8.93
2018-06-29T21:26:27.194Z,8.87
2018-06-29T21:29:01.664Z,9.27
2018-06-29T21:31:35.858Z,9.43
2018-06-29T21:34:10.042Z,9.30
2018-06-29T21:36:44.174Z,9.53
2018-06-29T21:39:18.383Z,10.03
2018-06-29T21:41:52.839Z,9.37
2018-06-29T21:44:27.195Z,9.73
2018-06-29T21:47:01.396Z,9.43
2018-06-29T21:49:35.718Z,9.77
2018-06-29T21:52:09.899Z,10.03
2018-06-29T21:54:44.225Z,8.97
2018-06-29T21:57:18.495Z,8.63
2018-06-29T21:59:52.771Z,9.73
2018-06-29T22:02:27.121Z,9.33
2018-06-29T22:05:01.480Z,9.30
2018-06-29T22:07:35.814Z,8.43
2018-06-29T22:10:10.359Z,9.73
2018-06-29T22:12:44.590Z,8.33
2018-06-29T22:15:22.779Z,9.03
2018-06-29T22:17:56.983Z,7.77
2018-06-29T22:20:31.270Z,8.77
2018-06-29T22:23:05.582Z,7.80
2018-06-29T22:25:39.887Z,7.67
2018-06-29T22:28:14.143Z,7.73
2018-06-29T22:30:48.453Z,7.03
2018-06-29T22:33:22.594Z,6.70
2018-06-29T22:35:56.766Z,6.27
2018-06-29T22:38:31.064Z,6.33
2018-06-29T22:41:05.230Z,6.97
2018-06-29T22:43:39.558Z,5.90
2018-06-29T22:46:13.747Z,6.17
2018-06-29T22:48:47.930Z,5.97
2018-06-29T22:51:22.215Z,5.87
2018-06-29T22:53:56.530Z,5.50
2018-06-29T22:56:30.784Z,5.47
2018-06-29T22:59:05.046Z,6.37
2018-06-29T23:01:39.291Z,5.30
2018-06-29T23:04:16.687Z,5.10
2018-06-29T23:06:50.903Z,5.30
2018-06-29T23:09:25.149Z,5.40
2018-06-29T23:11:59.506Z,4.60
2018-06-29T23:14:33.822Z,4.93
2018-06-29T23:17:08.250Z,5.03
2018-06-29T23:19:42.523Z,4.50
2018-06-29T23:22:16.842Z,4.80
2018-06-29T23:24:51.094Z,5.00
2018-06-29T23:27:25.265Z,4.37
2018-06-29T23:29:59.586Z,4.50
2018-06-29T23:32:33.840Z,4.30
2018-06-29T23:35:08.143Z,4.40
2018-06-29T23:37:42.387Z,4.37
2018-06-29T23:40:16.806Z,4.17
2018-06-29T23:42:51.138Z,4.20
2018-06-29T23:45:25.568Z,4.50
2018-06-29T23:47:59.814Z,3.90
2018-06-29T23:50:34.138Z,4.20
2018-06-29T23:53:08.341Z,4.10
2018-06-29T23:55:42.653Z,3.90
2018-06-29T23:58:16.947Z,3.60
